Time;durP1;ratioP1;P1;durP2;ratioP2;P2;SDS_P1;SDS_P2;PMS_P1;PMS_P2;Temp;Humidity;BMP_temperature;BMP_pressure;BME280_temperature;BME280_humidity;BME280_pressure;Samples;Min_cycle;Max_cycle;Signal;HPM_P1;HPM_P2
2022/10/13 00:00:29;;;;;;;11.03;2.83;;;;;;;;;;5136457;27;20460;-68
2022/10/13 00:02:56;;;;;;;6.00;2.80;;;;;;;;;;5136644;27;20692;-68
2022/10/13 00:05:23;;;;;;;13.53;3.10;;;;;;;;;;5135772;27;20556;-68
2022/10/13 00:07:50;;;;;;;4.93;3.07;;;;;;;;;;5136672;27;20503;-68
2022/10/13 00:10:18;;;;;;;4.97;2.77;;;;;;;;;;5136443;27;20442;-68
2022/10/13 00:12:44;;;;;;;8.50;3.00;;;;;;;;;;5135065;27;20450;-68
2022/10/13 00:15:12;;;;;;;3.93;2.80;;;;;;;;;;5119274;27;20484;-68
2022/10/13 00:17:40;;;;;;;4.80;3.13;;;;;;;;;;5128219;27;20461;-68
2022/10/13 00:20:08;;;;;;;11.93;3.00;;;;;;;;;;5135222;27;20548;-68
2022/10/13 00:22:35;;;;;;;10.43;3.53;;;;;;;;;;5135410;27;20959;-68
2022/10/13 00:25:02;;;;;;;9.90;3.47;;;;;;;;;;5135617;27;20461;-69
2022/10/13 00:27:30;;;;;;;7.60;3.43;;;;;;;;;;5134790;27;20463;-68
2022/10/13 00:29:57;;;;;;;7.80;3.10;;;;;;;;;;5135754;27;20510;-68
2022/10/13 00:32:24;;;;;;;5.10;2.93;;;;;;;;;;5136041;27;20453;-68
2022/10/13 00:34:51;;;;;;;8.17;3.90;;;;;;;;;;5135134;27;20477;-69
2022/10/13 00:37:21;;;;;;;10.20;3.63;;;;;;;;;;5135734;27;20603;-68
2022/10/13 00:39:48;;;;;;;10.87;3.60;;;;;;;;;;5135061;27;20438;-68
2022/10/13 00:42:15;;;;;;;6.70;3.47;;;;;;;;;;5137853;27;20481;-68
2022/10/13 00:45:03;;;;;;;7.30;3.40;;;;;;;;;;5137580;27;20454;-68
2022/10/13 00:47:33;;;;;;;6.27;2.90;;;;;;;;;;5139116;27;20532;-69
2022/10/13 00:50:01;;;;;;;7.43;3.33;;;;;;;;;;5138884;27;20442;-68
2022/10/13 00:52:29;;;;;;;6.93;3.80;;;;;;;;;;5138163;27;20483;-69
2022/10/13 00:54:56;;;;;;;7.50;3.80;;;;;;;;;;5136628;27;20492;-68
2022/10/13 00:57:24;;;;;;;12.40;3.10;;;;;;;;;;5136265;27;20849;-68
2022/10/13 00:59:51;;;;;;;12.23;3.40;;;;;;;;;;5139943;27;20456;-67
2022/10/13 01:02:19;;;;;;;4.47;3.17;;;;;;;;;;5138399;27;20713;-68
2022/10/13 01:04:47;;;;;;;8.80;3.47;;;;;;;;;;5137682;27;20548;-68
2022/10/13 01:07:14;;;;;;;5.57;3.37;;;;;;;;;;5137929;27;20457;-68
2022/10/13 01:09:41;;;;;;;7.63;3.20;;;;;;;;;;5126353;27;20456;-68
2022/10/13 01:12:18;;;;;;;12.17;3.80;;;;;;;;;;5138260;27;20534;-68
2022/10/13 01:14:48;;;;;;;6.97;3.03;;;;;;;;;;5138427;27;20592;-68
2022/10/13 01:17:19;;;;;;;7.20;3.53;;;;;;;;;;5138572;27;20750;-67
2022/10/13 01:20:13;;;;;;;8.67;3.37;;;;;;;;;;5137321;27;20710;-67
2022/10/13 01:22:48;;;;;;;7.40;3.63;;;;;;;;;;5090155;27;20456;-67
2022/10/13 01:25:36;;;;;;;9.50;3.73;;;;;;;;;;5129678;27;20648;-68
2022/10/13 01:28:24;;;;;;;4.90;3.10;;;;;;;;;;5117278;27;20459;-68
2022/10/13 01:30:56;;;;;;;7.33;3.97;;;;;;;;;;5111424;27;20458;-68
2022/10/13 01:33:30;;;;;;;10.17;3.67;;;;;;;;;;5116416;27;20900;-68
2022/10/13 01:36:07;;;;;;;8.20;3.90;;;;;;;;;;5117039;27;20871;-67
2022/10/13 01:38:37;;;;;;;10.20;3.80;;;;;;;;;;5117849;27;21169;-67
2022/10/13 01:41:08;;;;;;;5.30;3.30;;;;;;;;;;5117522;27;20454;-69
2022/10/13 01:43:37;;;;;;;12.37;3.90;;;;;;;;;;5116931;27;20877;-68
2022/10/13 01:46:06;;;;;;;9.83;3.33;;;;;;;;;;5124946;27;20454;-68
2022/10/13 01:48:34;;;;;;;13.30;3.37;;;;;;;;;;5137363;27;20458;-68
2022/10/13 01:51:01;;;;;;;9.57;3.60;;;;;;;;;;5137599;27;20506;-68
2022/10/13 01:53:28;;;;;;;4.50;3.43;;;;;;;;;;5137417;27;20454;-68
2022/10/13 01:55:57;;;;;;;10.30;3.70;;;;;;;;;;5137039;27;20591;-69
2022/10/13 01:58:25;;;;;;;5.80;3.30;;;;;;;;;;5138883;27;20452;-68
2022/10/13 02:00:57;;;;;;;5.70;3.60;;;;;;;;;;5137178;27;20450;-68
2022/10/13 02:03:30;;;;;;;5.93;3.20;;;;;;;;;;5136911;27;20446;-68
2022/10/13 02:06:02;;;;;;;5.93;3.37;;;;;;;;;;5116783;27;20474;-68
2022/10/13 02:08:31;;;;;;;7.53;3.77;;;;;;;;;;5116887;27;20520;-68
2022/10/13 02:11:01;;;;;;;12.03;4.47;;;;;;;;;;5117011;27;20916;-67
2022/10/13 02:13:29;;;;;;;6.63;3.17;;;;;;;;;;5116058;27;20541;-68
2022/10/13 02:15:58;;;;;;;7.03;3.73;;;;;;;;;;5115952;27;20646;-68
2022/10/13 02:18:29;;;;;;;9.20;4.40;;;;;;;;;;5116011;27;20893;-68
2022/10/13 02:20:56;;;;;;;9.20;4.07;;;;;;;;;;5116554;27;20466;-68
2022/10/13 02:23:26;;;;;;;6.50;3.43;;;;;;;;;;5116382;27;20439;-68
2022/10/13 02:25:54;;;;;;;11.77;4.10;;;;;;;;;;5116294;27;20458;-68
2022/10/13 02:28:21;;;;;;;10.03;3.43;;;;;;;;;;5116691;27;20443;-68
2022/10/13 02:30:51;;;;;;;6.70;3.20;;;;;;;;;;5116814;27;20458;-68
2022/10/13 02:33:18;;;;;;;7.33;3.33;;;;;;;;;;5116061;27;20457;-68
2022/10/13 02:35:46;;;;;;;7.53;3.80;;;;;;;;;;5116087;27;20922;-68
2022/10/13 02:38:12;;;;;;;5.80;3.20;;;;;;;;;;5115950;27;20704;-68
2022/10/13 02:40:39;;;;;;;8.00;3.70;;;;;;;;;;5122453;27;20442;-68
2022/10/13 02:43:06;;;;;;;8.73;3.10;;;;;;;;;;5136482;27;20458;-68
2022/10/13 02:45:33;;;;;;;7.20;3.60;;;;;;;;;;5136621;27;20449;-67
2022/10/13 02:48:00;;;;;;;9.20;3.47;;;;;;;;;;5125158;27;20601;-68
2022/10/13 02:50:30;;;;;;;13.13;3.80;;;;;;;;;;5131869;27;20433;-68
2022/10/13 02:52:58;;;;;;;9.37;4.13;;;;;;;;;;5136835;27;20925;-68
2022/10/13 02:55:36;;;;;;;8.73;4.80;;;;;;;;;;5131104;27;20935;-68
2022/10/13 02:58:03;;;;;;;5.57;3.93;;;;;;;;;;5116006;27;20454;-68
2022/10/13 03:00:30;;;;;;;6.90;3.30;;;;;;;;;;5116010;27;20451;-67
2022/10/13 03:03:00;;;;;;;6.27;4.47;;;;;;;;;;5115860;27;20504;-68
2022/10/13 03:05:26;;;;;;;6.43;3.50;;;;;;;;;;5115429;27;20512;-67
2022/10/13 03:07:53;;;;;;;11.93;4.27;;;;;;;;;;5115982;27;20462;-68
2022/10/13 03:10:21;;;;;;;6.00;3.60;;;;;;;;;;5120095;27;20453;-68
2022/10/13 03:12:48;;;;;;;7.93;3.90;;;;;;;;;;5135146;27;20508;-68
2022/10/13 03:15:19;;;;;;;6.47;3.93;;;;;;;;;;5117671;27;20473;-68
2022/10/13 03:17:58;;;;;;;12.13;4.30;;;;;;;;;;5121253;27;20462;-67
2022/10/13 03:20:29;;;;;;;5.47;3.17;;;;;;;;;;5127202;27;20488;-68
2022/10/13 03:22:56;;;;;;;6.83;3.47;;;;;;;;;;5135855;27;20555;-68
2022/10/13 03:25:24;;;;;;;7.30;4.37;;;;;;;;;;5123936;27;20875;-68
2022/10/13 03:27:51;;;;;;;9.73;3.93;;;;;;;;;;5131714;27;20450;-68
2022/10/13 03:30:18;;;;;;;10.83;4.37;;;;;;;;;;5136503;27;20457;-68
2022/10/13 03:32:45;;;;;;;7.77;3.90;;;;;;;;;;5137182;27;20442;-68
2022/10/13 03:35:12;;;;;;;8.53;4.40;;;;;;;;;;5137738;27;20485;-68
2022/10/13 03:37:39;;;;;;;6.70;4.00;;;;;;;;;;5136914;27;20719;-68
2022/10/13 03:40:06;;;;;;;9.70;5.03;;;;;;;;;;5134542;27;20465;-68
2022/10/13 03:42:36;;;;;;;4.83;3.77;;;;;;;;;;5137440;27;20942;-68
2022/10/13 03:45:03;;;;;;;4.57;3.40;;;;;;;;;;5135912;27;20461;-68
2022/10/13 03:47:30;;;;;;;13.10;4.33;;;;;;;;;;5136944;27;20854;-68
2022/10/13 03:49:57;;;;;;;5.67;3.50;;;;;;;;;;5136196;27;20453;-68
2022/10/13 03:52:24;;;;;;;7.30;4.80;;;;;;;;;;5136833;27;20508;-68
2022/10/13 03:54:51;;;;;;;7.90;3.60;;;;;;;;;;5136267;27;20496;-68
2022/10/13 03:57:18;;;;;;;9.30;4.27;;;;;;;;;;5130493;27;20556;-68
2022/10/13 03:59:45;;;;;;;11.50;3.60;;;;;;;;;;5134604;27;20517;-68
2022/10/13 04:02:12;;;;;;;10.90;5.77;;;;;;;;;;5136669;27;20771;-67
2022/10/13 04:04:39;;;;;;;6.40;3.80;;;;;;;;;;5135502;27;20880;-68
2022/10/13 04:07:07;;;;;;;9.67;4.63;;;;;;;;;;5135196;27;20449;-67
2022/10/13 04:09:34;;;;;;;10.00;3.43;;;;;;;;;;5136115;27;20457;-68
2022/10/13 04:12:01;;;;;;;8.30;4.00;;;;;;;;;;5135378;27;20445;-68
2022/10/13 04:14:28;;;;;;;7.40;4.60;;;;;;;;;;5135979;27;20477;-68
2022/10/13 04:17:05;;;;;;;6.70;4.73;;;;;;;;;;5137316;27;20794;-68
2022/10/13 04:19:32;;;;;;;15.20;4.63;;;;;;;;;;5139227;27;20911;-68
2022/10/13 04:21:59;;;;;;;7.13;4.90;;;;;;;;;;5139109;27;20732;-68
2022/10/13 04:24:26;;;;;;;22.70;4.63;;;;;;;;;;5139585;27;20952;-68
2022/10/13 04:26:53;;;;;;;8.70;4.00;;;;;;;;;;5139468;27;20445;-68
2022/10/13 04:29:20;;;;;;;6.60;3.80;;;;;;;;;;5138339;27;20434;-68
2022/10/13 04:31:47;;;;;;;11.63;4.23;;;;;;;;;;5122595;27;20458;-68
2022/10/13 04:34:15;;;;;;;8.63;4.00;;;;;;;;;;5136801;27;20824;-68
2022/10/13 04:36:42;;;;;;;7.40;3.97;;;;;;;;;;5119505;27;20477;-67
2022/10/13 04:39:09;;;;;;;9.10;4.53;;;;;;;;;;5127097;27;21090;-68
2022/10/13 04:41:35;;;;;;;7.40;4.23;;;;;;;;;;5138910;27;20826;-68
2022/10/13 04:44:02;;;;;;;7.93;4.07;;;;;;;;;;5138838;27;20442;-67
2022/10/13 04:46:29;;;;;;;18.93;4.40;;;;;;;;;;5138704;27;20450;-68
2022/10/13 04:48:56;;;;;;;6.50;4.33;;;;;;;;;;5137934;27;20457;-68
2022/10/13 04:51:25;;;;;;;9.57;4.10;;;;;;;;;;5137769;27;20442;-68
2022/10/13 04:53:56;;;;;;;7.20;3.90;;;;;;;;;;5138513;27;20724;-69
2022/10/13 04:56:24;;;;;;;8.77;4.60;;;;;;;;;;5138041;27;20482;-68
2022/10/13 04:58:51;;;;;;;5.80;4.40;;;;;;;;;;5137556;27;20478;-68
2022/10/13 05:01:19;;;;;;;12.67;4.60;;;;;;;;;;5137449;27;20517;-67
2022/10/13 05:03:49;;;;;;;6.43;4.23;;;;;;;;;;5137568;27;20449;-69
2022/10/13 05:06:16;;;;;;;12.43;4.27;;;;;;;;;;5137744;27;20714;-68
2022/10/13 05:08:44;;;;;;;7.43;4.80;;;;;;;;;;5137319;27;20735;-68
2022/10/13 05:11:11;;;;;;;8.33;5.07;;;;;;;;;;5136802;27;20446;-68
2022/10/13 05:13:38;;;;;;;13.77;4.97;;;;;;;;;;5137537;27;20454;-68
2022/10/13 05:16:08;;;;;;;7.13;4.60;;;;;;;;;;5137384;27;20541;-69
2022/10/13 05:18:38;;;;;;;8.60;4.33;;;;;;;;;;5135320;27;20442;-68
2022/10/13 05:21:08;;;;;;;22.10;5.20;;;;;;;;;;5136243;27;20438;-68
2022/10/13 05:23:35;;;;;;;12.43;4.57;;;;;;;;;;5136801;27;20525;-70
2022/10/13 05:26:03;;;;;;;6.40;4.37;;;;;;;;;;5135582;27;20454;-68
2022/10/13 05:28:31;;;;;;;13.83;6.90;;;;;;;;;;5135310;27;21129;-67
2022/10/13 05:30:58;;;;;;;11.67;5.10;;;;;;;;;;5135480;27;20584;-68
2022/10/13 05:33:25;;;;;;;8.90;4.83;;;;;;;;;;5136472;27;20540;-68
2022/10/13 05:35:52;;;;;;;18.53;6.43;;;;;;;;;;5134841;27;20493;-69
2022/10/13 05:38:19;;;;;;;13.30;4.47;;;;;;;;;;5134090;27;20694;-68
2022/10/13 05:40:46;;;;;;;26.70;6.57;;;;;;;;;;5135031;27;21015;-69
2022/10/13 05:43:14;;;;;;;13.27;4.90;;;;;;;;;;5133599;27;20453;-68
2022/10/13 05:45:41;;;;;;;11.63;5.40;;;;;;;;;;5134997;27;20457;-68
2022/10/13 05:48:07;;;;;;;8.30;4.10;;;;;;;;;;5133169;27;20633;-67
2022/10/13 05:50:40;;;;;;;8.37;4.73;;;;;;;;;;5114255;27;20451;-68
2022/10/13 05:53:07;;;;;;;10.43;5.43;;;;;;;;;;5113472;27;20733;-69
2022/10/13 05:55:34;;;;;;;7.60;5.10;;;;;;;;;;5114789;27;20773;-70
2022/10/13 05:58:01;;;;;;;9.27;4.80;;;;;;;;;;5117006;27;20938;-69
2022/10/13 06:00:29;;;;;;;8.37;4.53;;;;;;;;;;5135461;27;20462;-69
2022/10/13 06:02:59;;;;;;;13.80;6.10;;;;;;;;;;5135559;27;20461;-69
2022/10/13 06:05:26;;;;;;;18.63;4.77;;;;;;;;;;5134865;27;20450;-69
2022/10/13 06:07:54;;;;;;;11.67;4.87;;;;;;;;;;5133228;27;20819;-69
2022/10/13 06:10:21;;;;;;;12.20;4.80;;;;;;;;;;5133448;27;20958;-69
2022/10/13 06:12:51;;;;;;;10.50;5.60;;;;;;;;;;5135714;27;20768;-69
2022/10/13 06:15:18;;;;;;;10.00;5.50;;;;;;;;;;5112913;27;20485;-70
2022/10/13 06:17:48;;;;;;;10.03;5.30;;;;;;;;;;5114344;27;20455;-68
2022/10/13 06:20:15;;;;;;;9.43;5.07;;;;;;;;;;5140252;27;21048;-71
2022/10/13 06:22:42;;;;;;;6.93;5.67;;;;;;;;;;5139259;27;20476;-70
2022/10/13 06:25:09;;;;;;;42.93;10.40;;;;;;;;;;5135808;27;20454;-68
2022/10/13 06:27:40;;;;;;;10.27;5.00;;;;;;;;;;5132901;27;20904;-69
2022/10/13 06:30:07;;;;;;;8.40;4.90;;;;;;;;;;5135309;27;20442;-69
2022/10/13 06:32:40;;;;;;;13.13;5.37;;;;;;;;;;5135242;27;20850;-68
2022/10/13 06:35:23;;;;;;;9.83;6.00;;;;;;;;;;5134680;27;20929;-68
2022/10/13 06:37:51;;;;;;;12.87;5.70;;;;;;;;;;5114094;27;20590;-68
2022/10/13 06:40:21;;;;;;;10.67;5.10;;;;;;;;;;5124130;27;20493;-68
2022/10/13 06:42:52;;;;;;;12.17;5.57;;;;;;;;;;5133776;27;20979;-69
2022/10/13 06:45:23;;;;;;;11.80;6.43;;;;;;;;;;5133970;27;20529;-69
2022/10/13 06:47:53;;;;;;;9.80;5.90;;;;;;;;;;5128297;27;20893;-69
2022/10/13 06:50:25;;;;;;;11.33;6.67;;;;;;;;;;5122958;27;20458;-68
2022/10/13 06:52:58;;;;;;;9.30;6.33;;;;;;;;;;5124462;27;21100;-69
2022/10/13 06:55:35;;;;;;;9.70;5.30;;;;;;;;;;5119475;27;20535;-69
2022/10/13 06:58:05;;;;;;;6.13;4.73;;;;;;;;;;5117245;27;20448;-70
2022/10/13 07:00:39;;;;;;;7.97;5.07;;;;;;;;;;5128177;27;20483;-70
2022/10/13 07:03:06;;;;;;;9.13;5.40;;;;;;;;;;5122173;27;20466;-69
2022/10/13 07:05:34;;;;;;;12.93;5.97;;;;;;;;;;5131817;27;20513;-69
2022/10/13 07:08:04;;;;;;;11.40;6.87;;;;;;;;;;5134369;27;20762;-70
2022/10/13 07:10:45;;;;;;;10.63;5.60;;;;;;;;;;5114597;27;20937;-70
2022/10/13 07:13:17;;;;;;;12.37;5.53;;;;;;;;;;5125539;27;20554;-70
2022/10/13 07:15:47;;;;;;;7.20;5.60;;;;;;;;;;5157386;27;20472;-70
2022/10/13 07:18:14;;;;;;;13.37;5.90;;;;;;;;;;5142054;27;20503;-69
2022/10/13 07:20:43;;;;;;;9.57;7.60;;;;;;;;;;5120340;27;20474;-70
2022/10/13 07:23:16;;;;;;;7.27;6.20;;;;;;;;;;5133284;27;20473;-70
2022/10/13 07:25:43;;;;;;;14.53;9.30;;;;;;;;;;5133449;27;20446;-70
2022/10/13 07:28:10;;;;;;;15.03;7.90;;;;;;;;;;5120983;27;20469;-70
2022/10/13 07:30:39;;;;;;;12.37;6.40;;;;;;;;;;5133405;27;20462;-71
2022/10/13 07:33:12;;;;;;;11.40;6.97;;;;;;;;;;5118615;27;20478;-70
2022/10/13 07:35:40;;;;;;;14.63;6.93;;;;;;;;;;5119678;27;20505;-70
2022/10/13 07:38:08;;;;;;;12.50;6.30;;;;;;;;;;5121218;27;20530;-70
2022/10/13 07:40:43;;;;;;;10.33;6.57;;;;;;;;;;5119800;27;20484;-71
2022/10/13 07:43:13;;;;;;;15.93;7.30;;;;;;;;;;5127062;27;20607;-69
2022/10/13 07:45:46;;;;;;;10.60;6.77;;;;;;;;;;5119722;27;20528;-69
2022/10/13 07:48:23;;;;;;;10.30;6.90;;;;;;;;;;5132782;27;20462;-70
2022/10/13 07:50:53;;;;;;;11.30;6.93;;;;;;;;;;5133728;27;20454;-70
2022/10/13 07:53:23;;;;;;;16.13;7.13;;;;;;;;;;5129283;27;20469;-70
2022/10/13 07:56:06;;;;;;;;;;;;;;;;;;;;;
2022/10/13 07:58:44;;;;;;;11.50;7.50;;;;;;;;;;5110550;27;20565;-69
2022/10/13 08:01:16;;;;;;;11.00;6.80;;;;;;;;;;5132361;27;20473;-67
2022/10/13 08:03:43;;;;;;;10.53;6.83;;;;;;;;;;5131568;27;20568;-68
2022/10/13 08:06:14;;;;;;;18.77;8.83;;;;;;;;;;5133961;27;20454;-68
2022/10/13 08:08:42;;;;;;;12.77;7.50;;;;;;;;;;5131460;27;20492;-68
2022/10/13 08:11:15;;;;;;;11.53;6.90;;;;;;;;;;5131218;27;20466;-69
2022/10/13 08:13:44;;;;;;;17.80;8.00;;;;;;;;;;5134788;27;21036;-69
2022/10/13 08:16:14;;;;;;;10.27;7.13;;;;;;;;;;5134196;27;20556;-68
2022/10/13 08:18:44;;;;;;;12.30;7.03;;;;;;;;;;5128091;27;20478;-70
2022/10/13 08:21:16;;;;;;;12.77;6.37;;;;;;;;;;5130154;27;20454;-70
2022/10/13 08:23:44;;;;;;;11.50;6.87;;;;;;;;;;5132356;27;20477;-69
2022/10/13 08:26:15;;;;;;;12.00;7.60;;;;;;;;;;5137191;27;20809;-68
2022/10/13 08:28:42;;;;;;;13.17;7.30;;;;;;;;;;5149002;27;20473;-70
2022/10/13 08:31:10;;;;;;;11.10;6.30;;;;;;;;;;5136480;27;20461;-70
2022/10/13 08:33:46;;;;;;;12.40;8.10;;;;;;;;;;5130268;27;20458;-72
2022/10/13 08:36:14;;;;;;;13.47;7.83;;;;;;;;;;5130660;27;20520;-68
2022/10/13 08:38:47;;;;;;;14.67;7.63;;;;;;;;;;5129430;27;20465;-71
2022/10/13 08:41:17;;;;;;;10.40;5.97;;;;;;;;;;5129581;27;21097;-69
2022/10/13 08:43:52;;;;;;;10.87;7.83;;;;;;;;;;5134405;27;21530;-71
2022/10/13 08:46:21;;;;;;;12.50;6.63;;;;;;;;;;5132661;27;20476;-68
2022/10/13 08:48:50;;;;;;;16.60;7.23;;;;;;;;;;5127759;27;20462;-71
2022/10/13 08:51:21;;;;;;;10.27;6.33;;;;;;;;;;5133103;27;20466;-70
2022/10/13 08:53:49;;;;;;;11.33;6.87;;;;;;;;;;5129890;27;20461;-71
2022/10/13 08:56:27;;;;;;;11.17;6.50;;;;;;;;;;5144762;27;20482;-72
2022/10/13 08:59:00;;;;;;;12.63;7.67;;;;;;;;;;5133218;27;20976;-69
2022/10/13 09:01:29;;;;;;;10.00;6.63;;;;;;;;;;5127021;27;20458;-70
2022/10/13 09:03:57;;;;;;;10.97;7.13;;;;;;;;;;5124601;27;20434;-70
2022/10/13 09:06:28;;;;;;;10.43;6.17;;;;;;;;;;5128252;27;20474;-71
2022/10/13 09:09:12;;;;;;;16.63;7.37;;;;;;;;;;5126090;27;20552;-70
2022/10/13 09:11:47;;;;;;;22.60;9.40;;;;;;;;;;5126738;27;20587;-71
2022/10/13 09:14:21;;;;;;;13.17;7.30;;;;;;;;;;5144657;27;20518;-70
2022/10/13 09:16:52;;;;;;;11.70;7.60;;;;;;;;;;5126268;27;20494;-70
2022/10/13 09:19:27;;;;;;;9.90;6.60;;;;;;;;;;5133716;27;21002;-72
2022/10/13 09:21:59;;;;;;;9.57;6.17;;;;;;;;;;5122896;27;20812;-71
2022/10/13 09:24:42;;;;;;;13.83;7.67;;;;;;;;;;5118897;27;20837;-70
2022/10/13 09:27:26;;;;;;;18.03;7.87;;;;;;;;;;5130393;27;20463;-71
2022/10/13 09:30:27;;;;;;;;;;;;;;;;;;;;;
2022/10/13 09:36:15;;;;;;;13.87;6.27;;;;;;;;;;5127430;27;20470;-69
2022/10/13 09:38:46;;;;;;;10.50;6.80;;;;;;;;;;5137373;27;20476;-70
2022/10/13 09:41:14;;;;;;;12.53;6.73;;;;;;;;;;5137901;27;20488;-70
2022/10/13 09:43:43;;;;;;;15.93;7.20;;;;;;;;;;5128392;27;20472;-71
2022/10/13 09:46:24;;;;;;;9.30;6.70;;;;;;;;;;5125650;27;20533;-69
2022/10/13 09:48:52;;;;;;;20.20;6.90;;;;;;;;;;5130893;27;20457;-69
2022/10/13 09:51:30;;;;;;;13.23;6.20;;;;;;;;;;5108732;27;21088;-69
2022/10/13 09:53:57;;;;;;;11.70;6.60;;;;;;;;;;5135577;27;20744;-70
2022/10/13 09:56:27;;;;;;;13.73;7.73;;;;;;;;;;5128030;27;21074;-70
2022/10/13 09:59:02;;;;;;;15.43;6.77;;;;;;;;;;5121748;27;20472;-71
2022/10/13 10:01:32;;;;;;;11.07;7.57;;;;;;;;;;5131636;27;20544;-69
2022/10/13 10:04:01;;;;;;;12.63;7.40;;;;;;;;;;5134285;27;20477;-72
2022/10/13 10:06:45;;;;;;;16.00;8.00;;;;;;;;;;5132104;27;20477;-70
2022/10/13 10:09:40;;;;;;;10.13;7.13;;;;;;;;;;5138992;27;20862;-70
2022/10/13 10:12:13;;;;;;;12.43;7.43;;;;;;;;;;5138759;27;20915;-70
2022/10/13 10:14:41;;;;;;;10.27;6.77;;;;;;;;;;5134230;27;20454;-70
2022/10/13 10:17:21;;;;;;;12.90;6.70;;;;;;;;;;5131810;27;20458;-71
2022/10/13 10:19:54;;;;;;;15.33;7.57;;;;;;;;;;5125886;27;20924;-69
2022/10/13 10:22:26;;;;;;;12.93;6.73;;;;;;;;;;5125235;27;20469;-70
2022/10/13 10:24:55;;;;;;;14.33;7.50;;;;;;;;;;5128348;27;20489;-69
2022/10/13 10:27:33;;;;;;;18.00;8.00;;;;;;;;;;5133084;27;20464;-70
2022/10/13 10:30:16;;;;;;;11.83;6.40;;;;;;;;;;5115045;27;21229;-71
2022/10/13 10:32:46;;;;;;;14.93;6.43;;;;;;;;;;5126376;27;20545;-71
2022/10/13 10:35:14;;;;;;;10.27;6.67;;;;;;;;;;5121299;27;20554;-70
2022/10/13 10:37:58;;;;;;;11.93;6.50;;;;;;;;;;5124716;27;20484;-70
2022/10/13 10:40:32;;;;;;;12.33;5.10;;;;;;;;;;5129808;27;20458;-69
2022/10/13 10:43:05;;;;;;;11.93;5.93;;;;;;;;;;5125113;27;20791;-70
2022/10/13 10:45:34;;;;;;;12.53;7.13;;;;;;;;;;5119925;27;20478;-70
2022/10/13 10:48:02;;;;;;;10.10;6.00;;;;;;;;;;5131994;27;20813;-70
2022/10/13 10:50:49;;;;;;;9.70;6.10;;;;;;;;;;5134233;27;20912;-71
2022/10/13 10:53:21;;;;;;;10.80;6.37;;;;;;;;;;5131143;27;20621;-72
2022/10/13 10:55:53;;;;;;;11.27;5.63;;;;;;;;;;5129276;27;20482;-70
2022/10/13 10:58:26;;;;;;;7.50;5.30;;;;;;;;;;5125517;27;20510;-70
2022/10/13 11:00:55;;;;;;;11.13;6.43;;;;;;;;;;5135931;27;20438;-70
2022/10/13 11:03:29;;;;;;;9.20;5.60;;;;;;;;;;5134320;27;20474;-71
2022/10/13 11:06:10;;;;;;;13.30;6.50;;;;;;;;;;5131095;27;20885;-70
2022/10/13 11:08:42;;;;;;;10.03;5.93;;;;;;;;;;5143756;27;20445;-70
2022/10/13 11:11:28;;;;;;;12.90;6.70;;;;;;;;;;5135850;27;20487;-71
2022/10/13 11:13:58;;;;;;;13.03;6.40;;;;;;;;;;5106365;27;21080;-71
2022/10/13 11:16:30;;;;;;;8.60;5.30;;;;;;;;;;5124840;27;20506;-70
2022/10/13 11:19:16;;;;;;;8.23;4.53;;;;;;;;;;5124999;27;20519;-72
2022/10/13 11:22:01;;;;;;;10.20;6.23;;;;;;;;;;5130838;27;20734;-73
2022/10/13 11:24:53;;;;;;;10.53;5.50;;;;;;;;;;5132654;27;20873;-72
2022/10/13 11:27:37;;;;;;;9.80;6.67;;;;;;;;;;5130121;27;20458;-72
2022/10/13 11:30:05;;;;;;;7.50;5.13;;;;;;;;;;5111625;27;20492;-71
2022/10/13 11:32:54;;;;;;;13.17;7.30;;;;;;;;;;5118085;27;20482;-70
2022/10/13 11:35:23;;;;;;;8.90;5.70;;;;;;;;;;5116449;27;20500;-70
2022/10/13 11:38:05;;;;;;;17.43;7.27;;;;;;;;;;5121680;27;20450;-70
2022/10/13 11:40:37;;;;;;;7.90;5.67;;;;;;;;;;5120364;27;20449;-69
2022/10/13 11:43:23;;;;;;;10.30;6.33;;;;;;;;;;5116815;27;20458;-70
2022/10/13 11:46:10;;;;;;;12.03;6.27;;;;;;;;;;5119370;27;20465;-70
2022/10/13 11:48:46;;;;;;;15.30;7.53;;;;;;;;;;5119529;27;20467;-69
2022/10/13 11:51:25;;;;;;;11.27;5.23;;;;;;;;;;5114104;27;20469;-69
2022/10/13 11:54:03;;;;;;;8.73;5.20;;;;;;;;;;5116474;27;20553;-70
2022/10/13 11:56:38;;;;;;;8.20;5.30;;;;;;;;;;5117572;27;20537;-70
2022/10/13 11:59:05;;;;;;;11.67;5.73;;;;;;;;;;5105620;27;20473;-69
2022/10/13 12:01:33;;;;;;;14.87;8.30;;;;;;;;;;5118317;27;20458;-70
2022/10/13 12:04:12;;;;;;;13.20;5.03;;;;;;;;;;5105082;27;20447;-70
2022/10/13 12:06:44;;;;;;;7.03;5.50;;;;;;;;;;5120082;27;20478;-71
2022/10/13 12:09:20;;;;;;;11.27;6.90;;;;;;;;;;5119652;27;20569;-71
2022/10/13 12:11:55;;;;;;;13.90;7.73;;;;;;;;;;5120115;27;20450;-69
2022/10/13 12:14:24;;;;;;;10.10;6.07;;;;;;;;;;5120634;27;20469;-69
2022/10/13 12:16:54;;;;;;;10.80;6.20;;;;;;;;;;5122860;27;21281;-70
2022/10/13 12:19:23;;;;;;;12.20;6.97;;;;;;;;;;5122028;27;20560;-68
2022/10/13 12:21:51;;;;;;;10.57;6.07;;;;;;;;;;5116090;27;20452;-69
2022/10/13 12:24:22;;;;;;;8.33;4.73;;;;;;;;;;5133497;27;20487;-69
2022/10/13 12:26:50;;;;;;;10.47;5.87;;;;;;;;;;5132497;27;20461;-71
2022/10/13 12:29:19;;;;;;;14.70;6.53;;;;;;;;;;5135105;27;21086;-69
2022/10/13 12:32:01;;;;;;;9.40;7.40;;;;;;;;;;5131246;27;20560;-69
2022/10/13 12:34:40;;;;;;;8.40;5.60;;;;;;;;;;5132817;27;20972;-70
2022/10/13 12:37:11;;;;;;;6.17;4.37;;;;;;;;;;5134184;27;20526;-70
2022/10/13 12:39:39;;;;;;;7.63;5.00;;;;;;;;;;5127231;27;20535;-68
2022/10/13 12:42:07;;;;;;;7.93;4.33;;;;;;;;;;5112871;27;20535;-71
2022/10/13 12:44:35;;;;;;;11.03;4.40;;;;;;;;;;5137663;27;20468;-70
2022/10/13 12:47:03;;;;;;;13.27;6.33;;;;;;;;;;5124317;27;20461;-70
2022/10/13 12:49:31;;;;;;;8.73;4.80;;;;;;;;;;5135916;27;20814;-70
2022/10/13 12:52:04;;;;;;;8.90;4.20;;;;;;;;;;5121622;27;20553;-68
2022/10/13 12:54:39;;;;;;;11.00;5.30;;;;;;;;;;5137425;27;20492;-68
2022/10/13 12:57:16;;;;;;;9.43;4.40;;;;;;;;;;5135577;27;20492;-70
2022/10/13 12:59:51;;;;;;;6.43;4.30;;;;;;;;;;5127981;27;20874;-69
2022/10/13 13:02:27;;;;;;;15.00;5.80;;;;;;;;;;5121177;27;20761;-71
2022/10/13 13:04:54;;;;;;;9.00;4.97;;;;;;;;;;5113578;27;20477;-70
2022/10/13 13:07:29;;;;;;;9.70;6.27;;;;;;;;;;5107271;27;20458;-70
2022/10/13 13:10:15;;;;;;;8.00;5.93;;;;;;;;;;5130143;27;20499;-69
2022/10/13 13:12:43;;;;;;;8.90;4.37;;;;;;;;;;5119452;27;20494;-69
2022/10/13 13:15:19;;;;;;;10.63;5.43;;;;;;;;;;5134139;27;20557;-69
2022/10/13 13:17:46;;;;;;;14.20;7.77;;;;;;;;;;5114459;27;20550;-69
2022/10/13 13:20:25;;;;;;;10.20;5.30;;;;;;;;;;5125960;27;20460;-68
2022/10/13 13:22:53;;;;;;;13.83;4.70;;;;;;;;;;5120871;27;20512;-68
2022/10/13 13:25:20;;;;;;;9.63;5.37;;;;;;;;;;5131149;27;20474;-68
2022/10/13 13:27:47;;;;;;;7.90;5.20;;;;;;;;;;5120984;27;20493;-68
2022/10/13 13:30:21;;;;;;;8.03;4.10;;;;;;;;;;5134269;27;22211;-68
2022/10/13 13:32:49;;;;;;;10.00;4.83;;;;;;;;;;5134611;27;20468;-67
2022/10/13 13:35:17;;;;;;;11.40;5.17;;;;;;;;;;5131339;27;20550;-68
2022/10/13 13:37:51;;;;;;;8.83;5.87;;;;;;;;;;5131523;27;20536;-69
2022/10/13 13:40:20;;;;;;;7.37;4.60;;;;;;;;;;5133876;27;20870;-69
2022/10/13 13:42:59;;;;;;;7.80;4.83;;;;;;;;;;5130598;27;20458;-69
2022/10/13 13:45:26;;;;;;;9.30;5.10;;;;;;;;;;5143102;27;20459;-68
2022/10/13 13:47:56;;;;;;;7.23;4.50;;;;;;;;;;5135232;27;20934;-69
2022/10/13 13:50:27;;;;;;;9.77;4.83;;;;;;;;;;5135122;27;20842;-69
2022/10/13 13:52:54;;;;;;;8.43;4.83;;;;;;;;;;5124119;27;21030;-68
2022/10/13 13:55:22;;;;;;;6.47;4.10;;;;;;;;;;5133904;27;20573;-68
2022/10/13 13:57:49;;;;;;;9.50;5.00;;;;;;;;;;5128722;27;21128;-68
2022/10/13 14:00:17;;;;;;;6.63;3.93;;;;;;;;;;5135341;27;20489;-69
2022/10/13 14:02:44;;;;;;;8.17;3.63;;;;;;;;;;5134173;27;20449;-70
2022/10/13 14:05:12;;;;;;;7.30;4.37;;;;;;;;;;5127949;27;20454;-69
2022/10/13 14:07:42;;;;;;;14.43;4.37;;;;;;;;;;5133746;27;20442;-71
2022/10/13 14:10:15;;;;;;;10.13;3.70;;;;;;;;;;5129599;27;20523;-70
2022/10/13 14:12:43;;;;;;;7.20;3.53;;;;;;;;;;5134942;27;20449;-68
2022/10/13 14:15:11;;;;;;;7.13;3.73;;;;;;;;;;5135004;27;20469;-68
2022/10/13 14:17:38;;;;;;;6.37;3.33;;;;;;;;;;5135272;27;20507;-69
2022/10/13 14:20:05;;;;;;;5.80;3.40;;;;;;;;;;5132394;27;20457;-67
2022/10/13 14:22:46;;;;;;;9.13;3.80;;;;;;;;;;5134583;27;20468;-69
2022/10/13 14:25:17;;;;;;;6.30;4.07;;;;;;;;;;5124548;27;20742;-68
2022/10/13 14:27:48;;;;;;;8.07;4.27;;;;;;;;;;5133929;27;20465;-68
2022/10/13 14:30:15;;;;;;;10.00;4.50;;;;;;;;;;5135784;27;20511;-68
2022/10/13 14:32:42;;;;;;;7.90;2.83;;;;;;;;;;5135684;27;20483;-69
2022/10/13 14:35:12;;;;;;;6.40;3.80;;;;;;;;;;5136178;27;20458;-68
2022/10/13 14:37:39;;;;;;;8.50;4.50;;;;;;;;;;5135462;27;20544;-70
2022/10/13 14:40:06;;;;;;;6.37;3.30;;;;;;;;;;5136089;27;20470;-69
2022/10/13 14:42:33;;;;;;;8.80;5.50;;;;;;;;;;5134246;27;20461;-69
2022/10/13 14:45:01;;;;;;;7.03;3.87;;;;;;;;;;5122667;27;20458;-69
2022/10/13 14:47:28;;;;;;;11.27;7.87;;;;;;;;;;5127426;27;20853;-69
2022/10/13 14:49:55;;;;;;;12.30;6.27;;;;;;;;;;5115446;27;20460;-68
2022/10/13 14:52:22;;;;;;;6.10;4.30;;;;;;;;;;5126110;27;20448;-69
2022/10/13 14:54:49;;;;;;;9.60;4.77;;;;;;;;;;5116258;27;20454;-68
2022/10/13 14:57:16;;;;;;;8.30;4.50;;;;;;;;;;5135804;27;20489;-68
2022/10/13 14:59:46;;;;;;;7.43;4.40;;;;;;;;;;5150071;27;20474;-68
2022/10/13 15:02:14;;;;;;;9.60;5.33;;;;;;;;;;5133355;27;20564;-68